createdAt,value
2023-03-13T00:01:57.792Z,14.30
2023-03-13T00:04:25.260Z,12.47
2023-03-13T00:06:53.736Z,10.70
2023-03-13T00:09:23.468Z,13.00
2023-03-13T00:11:50.916Z,14.23
2023-03-13T00:14:19.346Z,12.90
2023-03-13T00:16:46.775Z,13.87
2023-03-13T00:19:14.181Z,10.03
2023-03-13T00:21:41.668Z,12.07
2023-03-13T00:24:11.059Z,9.93
2023-03-13T00:26:38.522Z,16.03
2023-03-13T00:29:06.298Z,12.17
2023-03-13T00:31:33.845Z,15.60
2023-03-13T00:34:02.731Z,9.53
2023-03-13T00:36:35.014Z,10.83
2023-03-13T00:39:02.948Z,12.67
2023-03-13T00:41:31.479Z,10.90
2023-03-13T00:43:59.225Z,6.33
2023-03-13T00:46:27.862Z,9.93
2023-03-13T00:48:55.453Z,10.53
2023-03-13T00:51:26.895Z,11.83
2023-03-13T00:53:56.080Z,11.27
2023-03-13T00:56:24.286Z,10.63
2023-03-13T00:58:53.592Z,15.93
2023-03-13T01:01:21.127Z,12.83
2023-03-13T01:03:50.459Z,15.93
2023-03-13T01:06:20.649Z,15.67
2023-03-13T01:08:48.201Z,10.77
2023-03-13T01:11:19.893Z,10.30
2023-03-13T01:13:47.827Z,10.50
2023-03-13T01:16:20.086Z,8.83
2023-03-13T01:18:49.217Z,11.57
2023-03-13T01:21:19.351Z,19.30
2023-03-13T01:23:47.824Z,11.53
2023-03-13T01:26:16.380Z,10.30
2023-03-13T01:28:43.762Z,10.37
2023-03-13T01:31:15.572Z,10.93
2023-03-13T01:33:44.626Z,11.20
2023-03-13T01:36:12.285Z,6.93
2023-03-13T01:38:40.552Z,8.40
2023-03-13T01:41:08.410Z,9.43
2023-03-13T01:43:37.602Z,9.10
2023-03-13T01:46:13.587Z,6.87
2023-03-13T01:49:02.843Z,8.87
2023-03-13T01:51:41.256Z,8.43
2023-03-13T01:54:10.448Z,11.90
2023-03-13T01:56:44.181Z,7.90
2023-03-13T01:59:13.552Z,8.87
2023-03-13T02:01:42.194Z,13.67
2023-03-13T02:04:09.710Z,7.07
2023-03-13T02:06:40.464Z,8.10
2023-03-13T02:09:17.053Z,8.50
2023-03-13T02:11:53.677Z,8.70
2023-03-13T02:14:23.665Z,12.17
2023-03-13T02:16:52.060Z,8.23
2023-03-13T02:19:25.399Z,13.77
2023-03-13T02:22:00.330Z,9.67
2023-03-13T02:24:55.015Z,5.10
2023-03-13T02:27:22.587Z,9.73
2023-03-13T02:29:52.453Z,10.57
2023-03-13T02:32:20.317Z,9.70
2023-03-13T02:34:50.658Z,11.67
2023-03-13T02:37:18.337Z,7.33
2023-03-13T02:39:48.241Z,13.67
2023-03-13T02:42:16.509Z,6.30
2023-03-13T02:44:44.982Z,10.20
2023-03-13T02:47:13.533Z,6.43
2023-03-13T02:49:40.983Z,16.43
2023-03-13T02:52:17.199Z,10.30
2023-03-13T02:54:46.276Z,9.27
2023-03-13T02:57:14.802Z,10.37
2023-03-13T02:59:42.421Z,9.60
2023-03-13T03:02:09.992Z,4.13
2023-03-13T03:04:38.167Z,5.70
2023-03-13T03:07:05.741Z,8.67
2023-03-13T03:09:33.885Z,9.73
2023-03-13T03:12:06.119Z,7.20
2023-03-13T03:14:33.719Z,10.20
2023-03-13T03:17:02.105Z,6.77
2023-03-13T03:19:29.510Z,6.43
2023-03-13T03:21:57.095Z,5.63
2023-03-13T03:24:24.475Z,8.60
2023-03-13T03:26:51.855Z,9.20
2023-03-13T03:29:28.197Z,5.50
2023-03-13T03:31:56.945Z,11.17
2023-03-13T03:34:25.621Z,10.93
2023-03-13T03:36:53.789Z,8.97
2023-03-13T03:39:21.287Z,12.70
2023-03-13T03:41:49.557Z,5.20
2023-03-13T03:44:16.998Z,6.60
2023-03-13T03:46:53.222Z,5.53
2023-03-13T03:49:22.103Z,6.73
2023-03-13T03:51:50.472Z,9.23
2023-03-13T03:54:22.860Z,5.53
2023-03-13T03:56:52.559Z,9.97
2023-03-13T03:59:22.113Z,14.00
2023-03-13T04:01:56.591Z,9.00
2023-03-13T04:04:26.348Z,8.90
2023-03-13T04:07:01.116Z,7.40
2023-03-13T04:09:32.041Z,8.93
2023-03-13T04:12:00.642Z,7.40
2023-03-13T04:14:29.397Z,13.57
2023-03-13T04:16:57.521Z,8.70
2023-03-13T04:19:25.183Z,6.20
2023-03-13T04:21:52.642Z,6.73
2023-03-13T04:24:20.565Z,11.03
2023-03-13T04:26:48.775Z,6.13
2023-03-13T04:29:16.471Z,7.40
2023-03-13T04:32:00.153Z,7.27
2023-03-13T04:35:07.234Z,11.33
2023-03-13T04:37:42.036Z,12.40
2023-03-13T04:40:36.399Z,5.40
2023-03-13T04:43:14.084Z,10.33
2023-03-13T04:46:04.564Z,9.23
2023-03-13T04:48:44.214Z,5.70
2023-03-13T04:51:30.305Z,5.90
2023-03-13T04:54:32.752Z,6.50
2023-03-13T04:57:06.966Z,8.90
2023-03-13T04:59:52.098Z,7.37
2023-03-13T05:02:38.220Z,12.47
2023-03-13T05:05:36.267Z,6.03
2023-03-13T05:08:23.793Z,4.70
2023-03-13T05:11:23.555Z,7.13
2023-03-13T05:13:59.727Z,4.87
2023-03-13T05:16:37.414Z,13.40
2023-03-13T05:19:27.226Z,7.30
2023-03-13T05:22:13.249Z,9.90
2023-03-13T05:25:15.218Z,6.47
2023-03-13T05:27:54.584Z,8.67
2023-03-13T05:30:51.711Z,5.03
2023-03-13T05:33:35.213Z,11.90
2023-03-13T05:36:09.387Z,9.47
2023-03-13T05:38:56.538Z,8.10
2023-03-13T05:41:35.996Z,4.00
2023-03-13T05:44:21.958Z,6.90
2023-03-13T05:47:07.992Z,8.73
2023-03-13T05:49:47.777Z,7.03
2023-03-13T05:52:17.833Z,12.03
2023-03-13T05:54:53.932Z,6.33
2023-03-13T05:57:35.058Z,10.13
2023-03-13T06:00:21.375Z,7.03
2023-03-13T06:03:01.141Z,5.87
2023-03-13T06:05:34.645Z,5.90
2023-03-13T06:08:04.801Z,5.17
2023-03-13T06:10:32.021Z,6.87
2023-03-13T06:13:13.763Z,4.87
2023-03-13T06:15:59.479Z,5.77
2023-03-13T06:18:46.482Z,5.83
2023-03-13T06:21:13.714Z,4.43
2023-03-13T06:23:42.158Z,6.03
2023-03-13T06:26:09.310Z,5.17
2023-03-13T06:28:36.493Z,7.37
2023-03-13T06:31:04.244Z,4.63
2023-03-13T06:33:31.731Z,4.07
2023-03-13T06:36:00.667Z,6.80
2023-03-13T06:38:28.479Z,4.20
2023-03-13T06:40:55.643Z,5.77
2023-03-13T06:43:23.031Z,3.97
2023-03-13T06:45:50.237Z,4.73
2023-03-13T06:48:17.468Z,3.60
2023-03-13T06:50:44.773Z,7.30
2023-03-13T06:53:16.939Z,5.90
2023-03-13T06:55:44.346Z,6.40
2023-03-13T06:58:24.998Z,9.10
2023-03-13T07:00:58.716Z,7.63
2023-03-13T07:03:26.128Z,7.40
2023-03-13T07:05:59.866Z,5.30
2023-03-13T07:08:27.764Z,5.53
2023-03-13T07:10:59.486Z,10.33
2023-03-13T07:13:27.032Z,3.23
2023-03-13T07:15:54.348Z,4.30
2023-03-13T07:18:21.929Z,3.43
2023-03-13T07:20:55.515Z,5.73
2023-03-13T07:23:23.247Z,5.53
2023-03-13T07:25:57.092Z,5.43
2023-03-13T07:28:24.788Z,3.53
2023-03-13T07:30:52.168Z,4.20
2023-03-13T07:33:19.850Z,3.33
2023-03-13T07:35:53.374Z,3.90
2023-03-13T07:38:20.829Z,3.33
2023-03-13T07:40:51.389Z,3.80
2023-03-13T07:43:19.946Z,2.87
2023-03-13T07:45:51.382Z,3.17
2023-03-13T07:48:19.013Z,2.83
2023-03-13T07:50:46.266Z,2.73
2023-03-13T07:53:15.644Z,3.40
2023-03-13T07:55:43.371Z,2.40
2023-03-13T07:58:10.519Z,3.63
2023-03-13T08:00:37.642Z,3.20
2023-03-13T08:03:06.819Z,3.60
2023-03-13T08:05:34.203Z,3.93
2023-03-13T08:08:01.589Z,5.80
2023-03-13T08:10:28.728Z,3.43
2023-03-13T08:12:55.930Z,3.17
2023-03-13T08:15:26.034Z,2.93
2023-03-13T08:17:53.667Z,2.83
2023-03-13T08:20:21.949Z,3.17
2023-03-13T08:22:52.126Z,3.00
2023-03-13T08:25:19.278Z,3.10
2023-03-13T08:27:46.437Z,3.33
2023-03-13T08:30:13.853Z,5.50
2023-03-13T08:32:42.602Z,3.20
2023-03-13T08:35:10.013Z,3.70
2023-03-13T08:37:37.452Z,6.83
2023-03-13T08:40:10.113Z,3.97
2023-03-13T08:42:37.993Z,4.77
2023-03-13T08:45:06.642Z,4.83
2023-03-13T08:47:33.858Z,6.33
2023-03-13T08:50:01.068Z,4.10
2023-03-13T08:52:28.324Z,4.73
2023-03-13T08:54:55.970Z,6.87
2023-03-13T08:57:23.686Z,4.47
2023-03-13T08:59:51.453Z,5.27
2023-03-13T09:02:20.743Z,5.30
2023-03-13T09:04:48.858Z,4.80
2023-03-13T09:07:16.614Z,4.93
2023-03-13T09:09:44.081Z,4.17
2023-03-13T09:12:24.713Z,5.87
2023-03-13T09:14:57.030Z,5.87
2023-03-13T09:17:24.156Z,4.70
2023-03-13T09:20:00.008Z,4.30
2023-03-13T09:22:28.021Z,3.53
2023-03-13T09:24:55.256Z,3.60
2023-03-13T09:27:22.449Z,4.27
2023-03-13T09:29:49.915Z,5.83
2023-03-13T09:32:18.487Z,4.00
2023-03-13T09:34:47.259Z,4.43
2023-03-13T09:37:14.412Z,3.73
2023-03-13T09:39:41.926Z,3.50
2023-03-13T09:42:09.802Z,4.23
2023-03-13T09:44:44.735Z,4.33
2023-03-13T09:47:32.755Z,3.90
2023-03-13T09:50:15.290Z,4.27
2023-03-13T09:52:43.809Z,3.57
2023-03-13T09:55:15.713Z,4.00
2023-03-13T09:57:50.264Z,3.60
2023-03-13T10:00:18.834Z,4.33
2023-03-13T10:03:01.010Z,4.00
2023-03-13T10:05:29.656Z,3.93
2023-03-13T10:08:09.098Z,4.17
2023-03-13T10:10:43.732Z,4.80
2023-03-13T10:13:16.244Z,4.03
2023-03-13T10:15:53.158Z,6.50
2023-03-13T10:18:24.644Z,4.00
2023-03-13T10:20:53.497Z,5.00
2023-03-13T10:23:36.025Z,5.33
2023-03-13T10:26:03.168Z,5.00
2023-03-13T10:28:30.362Z,5.50
2023-03-13T10:31:02.229Z,4.90
2023-03-13T10:33:30.866Z,6.87
2023-03-13T10:36:08.970Z,4.97
2023-03-13T10:38:53.737Z,6.03
2023-03-13T10:41:28.880Z,4.93
2023-03-13T10:43:59.565Z,4.23
2023-03-13T10:46:28.252Z,4.83
2023-03-13T10:48:56.451Z,4.87
2023-03-13T10:51:25.249Z,4.30
2023-03-13T10:53:52.580Z,4.97
2023-03-13T10:56:38.010Z,4.83
2023-03-13T10:59:21.114Z,7.50
2023-03-13T11:01:48.656Z,4.43
2023-03-13T11:04:20.420Z,4.57
2023-03-13T11:07:07.892Z,4.83
2023-03-13T11:09:36.434Z,8.17
2023-03-13T11:12:17.871Z,4.57
2023-03-13T11:14:45.790Z,6.37
2023-03-13T11:17:24.207Z,4.53
2023-03-13T11:19:58.950Z,5.90
2023-03-13T11:23:02.960Z,7.40
2023-03-13T11:25:35.784Z,4.47
2023-03-13T11:28:08.061Z,7.53
2023-03-13T11:30:48.583Z,7.37
2023-03-13T11:33:32.746Z,4.73
2023-03-13T11:36:07.173Z,5.37
2023-03-13T11:38:39.636Z,7.10
2023-03-13T11:41:19.138Z,5.40
2023-03-13T11:43:56.467Z,4.77
2023-03-13T11:46:30.465Z,6.17
2023-03-13T11:49:09.573Z,7.47
2023-03-13T11:51:59.526Z,5.70
2023-03-13T11:54:56.261Z,6.20
2023-03-13T11:57:31.471Z,3.90
2023-03-13T12:00:17.378Z,4.60
2023-03-13T12:02:56.780Z,3.60
2023-03-13T12:05:24.271Z,4.50
2023-03-13T12:07:58.558Z,4.00
2023-03-13T12:10:28.036Z,5.00
2023-03-13T12:13:06.134Z,6.17
2023-03-13T12:15:33.638Z,3.97
2023-03-13T12:18:17.094Z,5.73
2023-03-13T12:20:50.285Z,5.60
2023-03-13T12:23:20.357Z,4.00
2023-03-13T12:26:03.684Z,3.60
2023-03-13T12:28:30.880Z,7.27
2023-03-13T12:31:12.221Z,5.57
2023-03-13T12:33:58.859Z,3.67
2023-03-13T12:36:55.313Z,5.90
2023-03-13T12:39:44.088Z,4.33
2023-03-13T12:42:23.585Z,3.90
2023-03-13T12:44:51.093Z,5.80
2023-03-13T12:47:21.015Z,5.13
2023-03-13T12:49:57.559Z,6.00
2023-03-13T12:52:43.885Z,6.70
2023-03-13T12:55:30.713Z,4.13
2023-03-13T12:58:10.568Z,4.37
2023-03-13T13:00:40.345Z,4.43
2023-03-13T13:03:21.070Z,4.00
2023-03-13T13:06:03.043Z,5.90
2023-03-13T13:08:33.548Z,5.23
2023-03-13T13:11:19.660Z,4.00
2023-03-13T13:13:46.823Z,5.20
2023-03-13T13:16:18.859Z,6.87
2023-03-13T13:18:46.123Z,6.50
2023-03-13T13:21:16.929Z,4.60
2023-03-13T13:23:50.400Z,5.83
2023-03-13T13:26:30.656Z,4.30
2023-03-13T13:28:58.497Z,5.30
2023-03-13T13:31:44.678Z,4.90
2023-03-13T13:34:31.316Z,5.70
2023-03-13T13:36:59.279Z,5.23
2023-03-13T13:39:35.435Z,6.77
2023-03-13T13:42:23.646Z,5.63
2023-03-13T13:44:59.077Z,5.90
2023-03-13T13:47:27.770Z,6.20
2023-03-13T13:49:58.228Z,5.07
2023-03-13T13:52:34.821Z,7.27
2023-03-13T13:55:03.096Z,5.57
2023-03-13T13:57:35.721Z,8.17
2023-03-13T14:00:22.999Z,4.93
2023-03-13T14:02:54.491Z,8.93
2023-03-13T14:05:29.173Z,4.30
2023-03-13T14:07:56.483Z,5.60
2023-03-13T14:10:30.088Z,5.07
2023-03-13T14:12:58.557Z,4.93
2023-03-13T14:15:27.233Z,4.87
2023-03-13T14:17:56.079Z,6.30
2023-03-13T14:20:27.462Z,5.23
2023-03-13T14:22:55.613Z,3.60
2023-03-13T14:25:24.116Z,3.70
2023-03-13T14:27:52.098Z,4.90
2023-03-13T14:30:20.477Z,3.67
2023-03-13T14:32:49.039Z,4.00
2023-03-13T14:35:19.202Z,3.20
2023-03-13T14:37:49.415Z,6.00
2023-03-13T14:40:31.162Z,3.20
2023-03-13T14:42:59.702Z,3.00
2023-03-13T14:45:30.236Z,2.90
2023-03-13T14:48:02.898Z,3.23
2023-03-13T14:50:30.179Z,2.73
2023-03-13T14:53:06.248Z,4.97
2023-03-13T14:55:40.425Z,3.63
2023-03-13T14:58:27.999Z,3.77
2023-03-13T15:00:56.270Z,2.80
2023-03-13T15:03:25.590Z,5.30
2023-03-13T15:06:08.069Z,3.10
2023-03-13T15:08:37.755Z,2.97
2023-03-13T15:11:18.522Z,3.53
2023-03-13T15:13:45.681Z,2.67
2023-03-13T15:16:21.683Z,3.27
2023-03-13T15:18:49.189Z,4.80
2023-03-13T15:21:19.419Z,11.73
2023-03-13T15:23:51.089Z,12.03
2023-03-13T15:26:19.538Z,8.97
2023-03-13T15:28:46.794Z,5.20
2023-03-13T15:31:14.608Z,3.90
2023-03-13T15:33:41.830Z,5.80
2023-03-13T15:36:09.565Z,4.13
2023-03-13T15:38:36.750Z,2.60
2023-03-13T15:41:04.475Z,3.73
2023-03-13T15:43:31.638Z,2.70
2023-03-13T15:45:58.911Z,3.20
2023-03-13T15:48:31.331Z,2.20
2023-03-13T15:51:03.994Z,2.50
2023-03-13T15:53:32.340Z,4.03
2023-03-13T15:56:01.012Z,3.70
2023-03-13T15:58:28.899Z,2.80
2023-03-13T16:00:56.885Z,2.30
2023-03-13T16:03:28.282Z,3.50
2023-03-13T16:05:56.012Z,3.73
2023-03-13T16:08:37.007Z,2.40
2023-03-13T16:11:04.972Z,3.00
2023-03-13T16:13:32.115Z,5.67
2023-03-13T16:15:59.309Z,4.20
2023-03-13T16:18:26.507Z,3.67
2023-03-13T16:20:55.356Z,9.37
2023-03-13T16:23:22.507Z,2.20
2023-03-13T16:25:49.723Z,4.33
2023-03-13T16:28:17.075Z,2.20
2023-03-13T16:30:46.244Z,2.57
2023-03-13T16:33:13.414Z,4.20
2023-03-13T16:35:40.627Z,3.97
2023-03-13T16:38:08.539Z,3.87
2023-03-13T16:40:36.045Z,3.77
2023-03-13T16:43:03.587Z,3.40
2023-03-13T16:45:30.929Z,4.47
2023-03-13T16:47:58.354Z,4.07
2023-03-13T16:50:38.639Z,3.87
2023-03-13T16:53:05.801Z,3.67
2023-03-13T16:55:36.396Z,3.87
2023-03-13T16:58:04.204Z,2.50
2023-03-13T17:00:32.432Z,2.40
2023-03-13T17:03:01.424Z,3.20
2023-03-13T17:05:28.951Z,3.40
2023-03-13T17:07:56.230Z,3.13
2023-03-13T17:10:28.250Z,4.67
2023-03-13T17:12:55.521Z,3.10
2023-03-13T17:15:23.235Z,5.20
2023-03-13T17:17:51.607Z,4.53
2023-03-13T17:20:23.304Z,3.50
2023-03-13T17:22:50.644Z,4.20
2023-03-13T17:25:17.841Z,9.40
2023-03-13T17:27:47.368Z,3.63
2023-03-13T17:30:19.895Z,2.63
2023-03-13T17:32:48.051Z,4.13
2023-03-13T17:35:15.451Z,3.10
2023-03-13T17:37:44.462Z,3.30
2023-03-13T17:40:16.714Z,2.77
2023-03-13T17:42:44.084Z,3.93
2023-03-13T17:45:12.085Z,3.27
2023-03-13T17:47:39.223Z,3.70
2023-03-13T17:50:17.148Z,5.20
2023-03-13T17:52:44.398Z,4.57
2023-03-13T17:55:12.262Z,4.27
2023-03-13T17:57:39.786Z,6.00
2023-03-13T18:00:33.740Z,3.90
2023-03-13T18:03:01.095Z,5.30
2023-03-13T18:05:28.411Z,7.73
2023-03-13T18:07:58.645Z,4.40
2023-03-13T18:10:27.112Z,5.70
2023-03-13T18:12:54.946Z,5.70
2023-03-13T18:15:23.004Z,5.13
2023-03-13T18:17:50.568Z,4.47
2023-03-13T18:20:23.585Z,6.13
2023-03-13T18:22:50.746Z,6.10
2023-03-13T18:25:25.199Z,4.13
2023-03-13T18:27:52.298Z,4.27
2023-03-13T18:30:21.644Z,4.10
2023-03-13T18:32:49.044Z,7.10
2023-03-13T18:35:16.871Z,5.93
2023-03-13T18:37:45.536Z,4.40
2023-03-13T18:40:16.914Z,6.80
2023-03-13T18:42:45.366Z,4.67
2023-03-13T18:45:16.765Z,7.33
2023-03-13T18:47:44.024Z,5.63
2023-03-13T18:50:22.355Z,4.27
2023-03-13T18:52:50.720Z,5.50
2023-03-13T18:55:17.977Z,3.73
2023-03-13T18:57:45.486Z,3.80
2023-03-13T19:00:31.772Z,5.17
2023-03-13T19:02:59.071Z,3.80
2023-03-13T19:05:26.383Z,4.40
2023-03-13T19:07:53.639Z,7.20
2023-03-13T19:10:20.893Z,7.40
2023-03-13T19:12:48.161Z,4.63
2023-03-13T19:15:15.325Z,5.60
2023-03-13T19:17:43.067Z,4.37
2023-03-13T19:20:13.078Z,10.83
2023-03-13T19:22:40.175Z,5.50
2023-03-13T19:25:07.598Z,4.67
2023-03-13T19:27:34.798Z,4.77
2023-03-13T19:30:01.915Z,8.27
2023-03-13T19:32:29.190Z,6.07
2023-03-13T19:34:56.384Z,4.43
2023-03-13T19:37:23.621Z,7.33
2023-03-13T19:39:50.844Z,5.53
2023-03-13T19:42:18.016Z,4.90
2023-03-13T19:44:45.192Z,3.60
2023-03-13T19:47:15.445Z,4.93
2023-03-13T19:49:42.866Z,3.10
2023-03-13T19:52:11.468Z,4.07
2023-03-13T19:54:38.652Z,2.80
2023-03-13T19:57:05.775Z,2.60
2023-03-13T19:59:35.169Z,6.93
2023-03-13T20:02:04.174Z,4.33
2023-03-13T20:04:31.499Z,3.10
2023-03-13T20:06:58.986Z,2.57
2023-03-13T20:09:26.163Z,2.50
2023-03-13T20:11:53.272Z,4.63
2023-03-13T20:14:20.454Z,2.37
2023-03-13T20:16:48.884Z,6.67
2023-03-13T20:19:16.211Z,2.73
2023-03-13T20:21:43.419Z,2.00
2023-03-13T20:24:10.790Z,2.00
2023-03-13T20:26:38.012Z,2.20
2023-03-13T20:29:05.473Z,2.63
2023-03-13T20:31:32.901Z,2.27
2023-03-13T20:34:00.692Z,2.30
2023-03-13T20:36:28.150Z,2.10
2023-03-13T20:38:55.669Z,2.30
2023-03-13T20:41:25.599Z,10.13
2023-03-13T20:43:53.283Z,2.50
2023-03-13T20:46:21.033Z,3.00
2023-03-13T20:48:48.270Z,3.70
2023-03-13T20:51:15.450Z,3.20
2023-03-13T20:53:43.608Z,4.53
2023-03-13T20:56:11.423Z,2.10
2023-03-13T20:58:38.934Z,2.83
2023-03-13T21:01:07.115Z,2.50
2023-03-13T21:03:35.779Z,2.43
2023-03-13T21:06:10.462Z,2.63
2023-03-13T21:08:38.929Z,3.43
2023-03-13T21:11:16.725Z,3.63
2023-03-13T21:13:43.934Z,2.33
2023-03-13T21:16:11.339Z,2.47
2023-03-13T21:18:38.523Z,2.57
2023-03-13T21:21:06.807Z,3.40
2023-03-13T21:23:34.951Z,5.83
2023-03-13T21:26:02.146Z,5.80
2023-03-13T21:28:29.606Z,2.73
2023-03-13T21:30:57.177Z,5.93
2023-03-13T21:33:24.613Z,2.60
2023-03-13T21:35:51.873Z,2.40
2023-03-13T21:38:19.082Z,3.10
2023-03-13T21:40:46.247Z,4.30
2023-03-13T21:43:13.425Z,2.73
2023-03-13T21:45:40.574Z,2.57
2023-03-13T21:48:08.057Z,2.40
2023-03-13T21:50:35.237Z,2.47
2023-03-13T21:53:02.399Z,3.47
2023-03-13T21:55:35.064Z,2.70
2023-03-13T21:58:02.171Z,2.33
2023-03-13T22:00:29.345Z,2.60
2023-03-13T22:02:56.826Z,4.50
2023-03-13T22:05:23.948Z,2.13
2023-03-13T22:07:51.111Z,2.33
2023-03-13T22:10:18.310Z,2.30
2023-03-13T22:12:45.407Z,4.23
2023-03-13T22:15:12.545Z,2.27
2023-03-13T22:17:39.680Z,2.13
2023-03-13T22:20:08.279Z,3.00
2023-03-13T22:22:35.414Z,2.00
2023-03-13T22:25:02.551Z,2.70
2023-03-13T22:27:30.865Z,2.27
2023-03-13T22:29:58.062Z,3.10
2023-03-13T22:32:25.827Z,2.00
2023-03-13T22:34:53.104Z,1.80
2023-03-13T22:37:22.084Z,2.40
2023-03-13T22:39:53.788Z,2.30
2023-03-13T22:42:21.365Z,3.43
2023-03-13T22:44:48.595Z,2.17
2023-03-13T22:47:15.687Z,2.47
2023-03-13T22:49:42.817Z,2.33
2023-03-13T22:52:10.214Z,3.20
2023-03-13T22:54:37.354Z,2.47
2023-03-13T22:57:04.891Z,2.60
2023-03-13T22:59:32.026Z,2.00
2023-03-13T23:01:59.178Z,2.50
2023-03-13T23:04:26.423Z,2.00
2023-03-13T23:06:53.542Z,2.10
2023-03-13T23:09:20.654Z,2.30
2023-03-13T23:11:47.779Z,3.73
2023-03-13T23:14:14.916Z,2.70
2023-03-13T23:16:42.147Z,2.30
2023-03-13T23:19:09.306Z,3.57
2023-03-13T23:21:36.416Z,3.07
2023-03-13T23:24:03.585Z,2.90
2023-03-13T23:26:30.763Z,4.83
2023-03-13T23:28:57.880Z,2.73
2023-03-13T23:31:25.004Z,4.17
2023-03-13T23:33:52.134Z,2.83
2023-03-13T23:36:19.901Z,2.53
2023-03-13T23:38:50.765Z,3.03
2023-03-13T23:41:18.211Z,6.00
2023-03-13T23:43:45.694Z,3.83
2023-03-13T23:46:17.159Z,3.83
2023-03-13T23:48:44.320Z,3.40
2023-03-13T23:51:11.569Z,3.70
2023-03-13T23:53:39.884Z,3.57
2023-03-13T23:56:07.235Z,4.47
2023-03-13T23:58:34.609Z,4.37
